Latest Coastal Weather Observations for St Lawrence

IDQ60701

Issued at 2:01 am EST Saturday 25 March 2017 (issued every 10 minutes, with the page automatically refreshed every 10 minutes)

About coastal observations | Map of coastal stations | Coastal observations for QLD | Marine services | Other Formats
Station Details ID: 033210 Name: ST LAWRENCE Lat: -22.35 Lon: 149.52 Height: 9.19 m
Data from the previous 72 hours. | See also: Recent months at St Lawrence
Date/Time
EST
Temp
°C
Wind Pressure Rain since
9am
mm
Weather Cloud Vis
km
Sea
Height
m
Swell
Dir  Spd
kts
Gust
kts
hPa Trend Height
m
Period
s
Dir
25/01:30am 24.0 S 5 7 1011.0 - 2.2 - - - - - - -
25/01:00am 24.0 S 5 6 1011.1 - 2.2 - - - - - - -
25/12:30am 24.1 S 4 5 1011.2 - 2.2 - - - - - - -
25/12:00am 24.3 S 4 5 1011.5 - 2.2 - - - - - - -
 
Date/Time
EST
Temp
°C
Wind Pressure Rain since
9am
mm
Weather Cloud Vis
km
Sea
Height
m
Swell
Dir  Spd
kts
Gust
kts
hPa Trend Height
m
Period
s
Dir
24/11:30pm 24.3 SSE 4 5 1011.7 - 2.2 - - - - - - -
24/11:00pm 24.1 S 4 5 1011.9 - 2.2 - - - - - - -
24/10:30pm 24.5 SSE 4 5 1012.1 - 2.2 - - - - - - -
24/10:00pm 24.6 S 3 4 1012.2 - 2.2 - - - - - - -
24/09:30pm 24.7 SSE 4 5 1012.0 - 2.2 - - - - - - -
24/09:00pm 25.3 SE 3 5 1011.9 - 2.2 - - - - - - -
24/08:30pm 25.7 ESE 3 4 1011.7 - 2.2 - - - - - - -
24/08:00pm 25.8 ESE 3 4 1011.3 - 2.2 - - - - - - -
24/07:30pm 26.2 ESE 3 4 1011.1 - 2.2 - - - - - - -
24/07:00pm 26.6 E 5 7 1010.8 - 2.2 - - - - - - -
24/06:30pm 26.5 SE 4 6 1010.6 - 2.2 - - - - - - -
24/06:00pm 26.4 SSE 1 3 1010.4 - 2.2 Recent precip. - - - - - -
24/05:30pm 26.4 SSE 2 4 1010.1 - 2.2 - - - - - - -
24/05:00pm 27.4 SE 4 8 1009.9 - 1.8 - - - - - - -
24/04:30pm 26.9 ENE 4 6 1009.5 - 1.8 - - - - - - -
24/04:00pm 27.8 SSE 3 4 1009.4 - 1.6 - - - - - - -
24/03:30pm 26.3 SSE 5 6 1009.4 - 1.6 - - - - - - -
24/03:00pm 30.2 E 7 11 1009.5 - 0.4 - - - - - - -
24/02:30pm 30.2 NE 7 10 1009.6 - 0.4 - - - - - - -
24/02:00pm 30.7 ENE 7 10 1010.1 - 0.4 - - - - - - -
24/01:30pm 30.4 E 7 11 1010.6 - 0.4 - - - - - - -
24/01:00pm 29.2 ESE 6 10 1011.0 - 0.4 - - - - - - -
24/12:30pm 28.6 SE 5 9 1011.7 - 0.4 - - - - - - -
24/12:00pm 27.7 SE 6 8 1012.3 - 0.4 Recent precip. - - - - - -
24/11:30am 26.6 ESE 8 13 1012.9 - 0.0 - - - - - - -
24/11:00am 28.0 S 6 9 1013.0 - 0.0 - - - - - - -
24/10:30am 27.2 SSE 7 9 1013.3 - 0.0 - - - - - - -
24/10:00am 26.7 SSE 5 9 1013.8 - 0.0 - - - - - - -
24/09:30am 26.2 ESE 7 11 1013.8 - 0.0 - - - - - - -
24/09:00am 26.3 SE 5 9 1013.5 - 46.2 - - - - - - -
24/08:30am 25.9 SE 5 8 1013.3 - 46.2 - - - - - - -
24/08:00am 25.6 SSE 5 7 1013.0 - 46.2 - - - - - - -
24/07:30am 24.7 S 5 7 1012.8 - 46.2 - - - - - - -
24/07:00am 24.0 S 4 6 1012.2 - 46.2 - - - - - - -
24/06:30am 23.6 S 4 6 1012.0 - 46.2 - - - - - - -
24/06:00am 23.5 S 4 6 1011.8 - 46.2 - - - - - - -
24/05:30am 23.6 S 5 7 1011.5 - 46.2 - - - - - - -
24/05:00am 23.6 S 6 9 1011.0 - 46.2 - - - - - - -
24/04:30am 23.6 S 6 8 1010.9 - 46.2 - - - - - - -
24/04:00am 23.7 S 6 8 1010.8 - 46.2 - - - - - - -
24/03:30am 23.9 S 6 9 1010.8 - 46.2 - - - - - - -
24/03:00am 23.9 S 7 9 1010.8 - 46.2 - - - - - - -
24/02:30am 23.9 S 7 9 1011.1 - 46.2 - - - - - - -
24/02:00am 24.0 S 6 9 1011.4 - 46.2 - - - - - - -
24/01:30am 24.2 S 5 6 1011.6 - 46.2 - - - - - - -
24/01:00am 24.2 SSE 6 8 1011.9 - 46.2 - - - - - - -
24/12:30am 24.4 SSE 4 5 1012.1 - 46.2 - - - - - - -
24/12:00am 24.3 SSE 3 5 1012.6 - 46.2 Recent precip. - - - - - -
 
Date/Time
EST
Temp
°C
Wind Pressure Rain since
9am
mm
Weather Cloud Vis
km
Sea
Height
m
Swell
Dir  Spd
kts
Gust
kts
hPa Trend Height
m
Period
s
Dir
23/11:30pm 24.2 SSE 3 4 1012.7 - 46.2 - - - - - - -
23/11:00pm 24.2 CALM 0 0 1012.9 - 46.0 - - - - - - -
23/10:30pm 24.5 NNW 2 4 1013.3 - 46.0 - - - - - - -
23/10:00pm 24.6 NNE 4 5 1013.6 - 46.0 - - - - - - -
23/09:30pm 24.8 NNE 6 9 1014.1 - 46.0 - - - - - - -
23/09:00pm 24.5 NE 5 7 1013.7 - 46.0 Rain - - - - - -
23/08:30pm 24.1 SSE 4 6 1013.4 - 45.4 - - - - - - -
23/08:00pm 24.2 SSE 4 5 1013.1 - 45.2 - - - - - - -
23/07:30pm 24.1 SE 5 7 1012.7 - 43.6 - - - - - - -
23/07:00pm 24.1 ENE 5 7 1012.6 - 43.2 - - - - - - -
23/06:30pm 24.1 E 6 12 1012.3 - 39.8 - - - - - - -
23/06:00pm 24.3 E 8 15 1011.7 - 21.8 Rain - - - - - -
23/05:30pm 24.7 E 6 10 1011.4 - 17.8 - - - - - - -
23/05:00pm 25.8 NNE 5 10 1011.1 - 9.6 - - - - - - -
23/04:30pm 27.2 SE 1 4 1010.6 - 9.6 - - - - - - -
23/04:00pm 27.3 ESE 5 7 1010.5 - 9.6 - - - - - - -
23/03:30pm 27.4 ESE 5 9 1010.6 - 9.6 - - - - - - -
23/03:00pm 26.9 SE 4 5 1010.2 - 9.4 - - - - - - -
23/02:30pm 26.2 SSE 5 6 1010.6 - 9.4 - - - - - - -
23/02:00pm 26.0 SSE 4 6 1010.9 - 9.4 - - - - - - -
23/01:30pm 25.1 S 4 5 1011.2 - 9.4 - - - - - - -
23/01:00pm 24.8 S 5 6 1011.4 - 9.4 - - - - - - -
23/12:30pm 24.3 SSW 4 6 1011.8 - 9.4 - - - - - - -
23/12:00pm 24.2 S 3 4 1012.5 - 8.0 Rain - - - - - -
23/11:30am 23.8 SW 2 4 1012.8 - 6.4 - - - - - - -
23/11:00am 23.9 NE 6 9 1013.1 - 4.6 - - - - - - -
23/10:30am 24.8 N 4 9 1013.1 - 0.4 - - - - - - -
23/10:00am 25.0 S 5 7 1013.3 - 0.0 - - - - - - -
23/09:30am 24.9 S 6 9 1013.2 - 0.0 - - - - - - -
23/09:00am 24.8 S 5 8 1013.0 - 36.4 - - - - - - -
23/08:30am 24.6 S 6 8 1012.7 - 36.4 - - - - - - -
23/08:00am 24.2 S 7 10 1012.2 - 36.4 - - - - - - -
23/07:30am 23.9 SSE 8 12 1011.7 - 36.4 - - - - - - -
23/07:00am 23.8 S 7 11 1011.6 - 36.2 - - - - - - -
23/06:30am 23.8 SSE 7 10 1011.2 - 36.2 - - - - - - -
23/06:00am 23.8 S 8 11 1010.9 - 36.2 - - - - - - -
23/05:30am 23.8 S 7 10 1010.6 - 36.2 - - - - - - -
23/05:00am 23.8 SSE 7 11 1010.2 - 36.2 - - - - - - -
23/04:30am 23.8 S 6 8 1010.2 - 36.2 - - - - - - -
23/04:00am 23.8 SSE 5 7 1009.9 - 35.8 - - - - - - -
23/03:30am 24.2 S 4 6 1009.9 - 34.8 - - - - - - -
23/03:00am 24.0 SSE 6 9 1009.9 - 34.2 Recent precip. - - - - - -
23/02:30am 24.0 S 5 7 1010.1 - 34.0 - - - - - - -
23/02:00am 24.1 SSE 5 7 1010.3 - 33.2 - - - - - - -
23/01:30am 24.3 S 5 7 1010.6 - 33.0 - - - - - - -
23/01:00am 24.4 SSE 4 6 1010.9 - 33.0 - - - - - - -
23/12:30am 24.4 SSE 6 8 1011.3 - 33.0 - - - - - - -
23/12:00am 24.5 SSE 5 7 1011.7 - 33.0 - - - - - - -
 
Date/Time
EST
Temp
°C
Wind Pressure Rain since
9am
mm
Weather Cloud Vis
km
Sea
Height
m
Swell
Dir  Spd
kts
Gust
kts
hPa Trend Height
m
Period
s
Dir
22/11:30pm 24.5 SSE 5 8 1011.9 - 33.0 - - - - - - -
22/11:00pm 24.5 SE 5 7 1012.0 - 33.0 - - - - - - -
22/10:30pm 24.9 SE 5 8 1012.0 - 33.0 - - - - - - -
22/10:00pm 25.2 ESE 5 7 1012.0 - 32.8 - - - - - - -
22/09:30pm 25.3 ESE 5 8 1012.0 - 32.0 - - - - - - -
22/09:00pm 25.4 E 6 10 1011.9 - 32.0 Rain - - - - - -
22/08:30pm 25.3 E 7 13 1011.4 - 31.8 - - - - - - -
22/08:00pm 25.0 E 5 7 1010.7 - 28.6 - - - - - - -
22/07:30pm 24.9 E 8 12 1010.4 - 26.0 - - - - - - -
22/07:00pm 24.8 ENE 8 14 1010.2 - 22.8 - - - - - - -
22/06:30pm 25.3 E 8 13 1009.8 - 14.8 - - - - - - -
22/06:00pm 25.2 NNE 8 12 1009.5 - 13.6 Rain - - - - - -
22/05:30pm 26.0 E 5 10 1009.3 - 8.2 - - - - - - -
22/05:00pm 25.6 E 6 10 1009.0 - 8.2 - - - - - - -
22/04:30pm 26.0 ENE 6 11 1009.0 - 7.8 - - - - - - -
22/04:00pm 25.8 ENE 6 8 1009.0 - 6.2 - - - - - - -
22/03:30pm 26.3 ENE 8 13 1008.9 - 1.0 - - - - - - -
22/03:00pm 27.8 E 9 14 1008.6 - 0.6 - - - - - - -
22/02:30pm 26.6 ESE 9 14 1008.8 - 0.6 - - - - - - -
22/02:00pm 25.9 ESE 9 15 1009.2 - 0.6 - - - - - - -
22/01:30pm 26.5 ESE 9 16 1009.6 - 0.0 - - - - - - -
22/01:00pm 27.4 ESE 10 16 1010.0 - 0.0 - - - - - - -
22/12:30pm 27.7 ESE 7 15 1010.5 - 0.0 - - - - - - -
22/12:00pm 27.7 ESE 8 12 1011.1 - 0.0 - - - - - - -
22/11:30am 26.8 SE 7 12 1011.5 - 0.0 - - - - - - -
22/11:00am 27.0 SE 7 12 1011.7 - 0.0 - - - - - - -
22/10:30am 26.5 ESE 7 12 1011.8 - 0.0 - - - - - - -
22/10:00am 26.3 SE 7 11 1012.0 - 0.0 - - - - - - -
22/09:30am 25.5 SSE 3 7 1012.0 - 0.0 - - - - - - -
22/09:00am 25.3 S 5 7 1011.9 - 66.4 - - - - - - -
22/08:30am 25.5 SSE 6 9 1011.7 - 66.4 - - - - - - -
22/08:00am 24.8 S 3 6 1011.6 - 66.4 - - - - - - -
22/07:30am 23.5 S 5 8 1011.3 - 66.4 - - - - - - -
22/07:00am 23.4 SSE 5 8 1010.9 - 66.4 - - - - - - -
22/06:30am 23.4 SSE 3 5 1010.8 - 66.4 - - - - - - -
22/06:00am 23.3 S 4 7 1010.6 - 66.4 - - - - - - -
22/05:30am 23.2 S 5 7 1010.3 - 66.4 - - - - - - -
22/05:00am 23.2 S 5 7 1009.9 - 66.4 - - - - - - -
22/04:30am 23.2 S 5 8 1010.0 - 66.2 - - - - - - -
22/04:00am 23.4 SSW 4 5 1010.0 - 62.4 - - - - - - -
22/03:30am 23.4 CALM 0 1 1010.1 - 58.2 - - - - - - -
22/03:00am 23.4 ESE 4 7 1010.3 - 50.8 Rain - - - - - -
22/02:30am 23.4 S 5 8 1009.8 - 48.2 - - - - - - -

Other Formats:

Comma delimited format used in spreadsheet applications
http://www.bom.gov.au/fwo/IDQ60701/IDQ60701.95369.axf

JavaScript Object Notation format (JSON) in row-major order
http://www.bom.gov.au/fwo/IDQ60701/IDQ60701.95369.json